createdAt,value
2023-03-15T00:01:46.802Z,86.19
2023-03-15T00:04:57.377Z,86.38
2023-03-15T00:08:11.011Z,98.23
2023-03-15T00:11:18.708Z,83.33
2023-03-15T00:14:25.111Z,106.78
2023-03-15T00:17:34.986Z,115.80
2023-03-15T00:20:46.531Z,86.34
2023-03-15T00:23:56.392Z,125.35
2023-03-15T00:27:05.051Z,109.69
2023-03-15T00:30:18.912Z,116.34
2023-03-15T00:33:24.931Z,101.27
2023-03-15T00:36:36.037Z,107.74
2023-03-15T00:39:41.905Z,66.59
2023-03-15T00:42:50.595Z,51.19
2023-03-15T00:45:56.478Z,46.63
2023-03-15T00:49:03.153Z,65.13
2023-03-15T00:52:12.855Z,73.50
2023-03-15T00:55:23.052Z,81.07
2023-03-15T00:58:29.036Z,91.89
2023-03-15T01:01:35.910Z,72.95
2023-03-15T01:04:43.554Z,79.29
2023-03-15T01:07:54.677Z,79.78
2023-03-15T01:11:06.346Z,92.32
2023-03-15T01:14:13.819Z,79.59
2023-03-15T01:17:19.771Z,64.49
2023-03-15T01:20:26.555Z,62.05
2023-03-15T01:23:35.129Z,83.78
2023-03-15T01:26:41.942Z,74.02
2023-03-15T01:29:49.749Z,68.29
2023-03-15T01:32:56.827Z,83.52
2023-03-15T01:36:06.169Z,85.09
2023-03-15T01:39:16.593Z,71.92
2023-03-15T01:42:26.286Z,78.70
2023-03-15T01:46:05.141Z,83.44
2023-03-15T01:49:23.032Z,85.72
2023-03-15T01:52:37.293Z,68.98
2023-03-15T01:56:04.888Z,70.65
2023-03-15T01:59:24.453Z,63.53
2023-03-15T02:02:32.149Z,62.66
2023-03-15T02:05:49.784Z,62.34
2023-03-15T02:09:22.402Z,68.74
2023-03-15T02:12:37.950Z,61.29
2023-03-15T02:15:46.969Z,62.67
2023-03-15T02:19:00.750Z,59.60
2023-03-15T02:22:29.560Z,59.71
2023-03-15T02:25:53.928Z,59.38
2023-03-15T02:29:09.346Z,62.11
2023-03-15T02:32:16.093Z,64.42
2023-03-15T02:35:41.303Z,67.56
2023-03-15T02:38:48.585Z,67.52
2023-03-15T02:42:08.078Z,65.82
2023-03-15T02:45:18.531Z,64.06
2023-03-15T02:48:25.524Z,61.61
2023-03-15T02:51:36.296Z,65.32
2023-03-15T02:54:43.747Z,64.28
2023-03-15T02:57:51.040Z,61.06
2023-03-15T03:00:59.464Z,62.16
2023-03-15T03:04:07.155Z,72.22
2023-03-15T03:07:13.578Z,83.43
2023-03-15T03:10:42.988Z,69.02
2023-03-15T03:13:49.253Z,77.29
2023-03-15T03:17:05.419Z,69.82
2023-03-15T03:20:16.948Z,67.57
2023-03-15T03:23:28.378Z,71.09
2023-03-15T03:26:36.382Z,72.72
2023-03-15T03:29:43.587Z,78.00
2023-03-15T03:32:54.426Z,80.06
2023-03-15T03:36:07.852Z,80.26
2023-03-15T03:39:14.284Z,80.96
2023-03-15T03:42:23.340Z,81.09
2023-03-15T03:45:29.438Z,80.37
2023-03-15T03:48:44.004Z,90.84
2023-03-15T03:51:49.954Z,93.19
2023-03-15T03:54:57.175Z,86.34
2023-03-15T03:58:03.150Z,86.15
2023-03-15T04:01:17.970Z,82.86
2023-03-15T04:04:42.399Z,91.49
2023-03-15T04:07:57.199Z,92.84
2023-03-15T04:11:10.050Z,86.56
2023-03-15T04:14:19.140Z,83.76
2023-03-15T04:17:28.082Z,89.55
2023-03-15T04:20:39.381Z,80.14
2023-03-15T04:23:46.332Z,84.08
2023-03-15T04:26:58.702Z,83.61
2023-03-15T04:30:27.326Z,88.30
2023-03-15T04:34:00.127Z,90.41
2023-03-15T04:37:15.330Z,111.85
2023-03-15T04:40:43.232Z,112.45
2023-03-15T04:44:21.252Z,143.64
2023-03-15T04:48:01.927Z,126.34
2023-03-15T04:51:19.931Z,127.37
2023-03-15T04:54:45.338Z,127.44
2023-03-15T04:58:16.439Z,174.81
2023-03-15T05:01:42.111Z,135.09
2023-03-15T05:05:20.323Z,134.32
2023-03-15T05:08:40.819Z,123.25
2023-03-15T05:11:55.860Z,127.73
2023-03-15T05:15:24.647Z,107.53
2023-03-15T05:18:30.575Z,108.53
2023-03-15T05:21:52.516Z,127.54
2023-03-15T05:25:21.287Z,108.41
2023-03-15T05:28:49.317Z,101.35
2023-03-15T05:31:55.339Z,93.75
2023-03-15T05:35:37.526Z,96.09
2023-03-15T05:38:53.122Z,95.44
2023-03-15T05:42:10.904Z,89.78
2023-03-15T05:45:40.413Z,87.50
2023-03-15T05:49:04.988Z,91.34
2023-03-15T05:52:26.750Z,110.62
2023-03-15T05:55:59.653Z,90.36
2023-03-15T05:59:21.119Z,114.22
2023-03-15T06:02:55.009Z,105.64
2023-03-15T06:06:19.417Z,90.29
2023-03-15T06:09:33.461Z,99.78
2023-03-15T06:12:50.433Z,93.12
2023-03-15T06:15:57.687Z,86.54
2023-03-15T06:19:08.210Z,91.12
2023-03-15T06:22:16.438Z,72.65
2023-03-15T06:25:30.823Z,78.50
2023-03-15T06:28:38.967Z,69.04
2023-03-15T06:31:45.011Z,64.83
2023-03-15T06:34:55.066Z,53.78
2023-03-15T06:38:01.541Z,61.62
2023-03-15T06:41:08.818Z,72.05
2023-03-15T06:44:16.080Z,53.03
2023-03-15T06:47:23.729Z,46.24
2023-03-15T06:50:46.092Z,67.31
2023-03-15T06:53:54.307Z,140.50
2023-03-15T06:57:01.601Z,98.33
2023-03-15T07:00:11.514Z,75.67
2023-03-15T07:03:17.485Z,83.82
2023-03-15T07:06:28.491Z,177.97
2023-03-15T07:09:34.406Z,87.78
2023-03-15T07:12:41.124Z,75.28
2023-03-15T07:15:47.997Z,66.35
2023-03-15T07:18:56.408Z,68.40
2023-03-15T07:22:04.919Z,44.86
2023-03-15T07:25:13.033Z,44.53
2023-03-15T07:28:19.075Z,47.62
2023-03-15T07:31:26.096Z,60.89
2023-03-15T07:34:32.046Z,53.53
2023-03-15T07:37:44.757Z,51.90
2023-03-15T07:40:50.819Z,52.92
2023-03-15T07:43:58.552Z,56.81
2023-03-15T07:47:04.599Z,50.87
2023-03-15T07:50:16.456Z,49.58
2023-03-15T07:53:32.190Z,43.66
2023-03-15T07:56:39.334Z,45.16
2023-03-15T07:59:46.419Z,41.84
2023-03-15T08:02:56.495Z,42.54
2023-03-15T08:06:02.368Z,49.47
2023-03-15T08:09:13.230Z,49.51
2023-03-15T08:12:30.289Z,46.23
2023-03-15T08:15:44.404Z,62.97
2023-03-15T08:18:50.271Z,59.77
2023-03-15T08:21:57.148Z,57.75
2023-03-15T08:25:05.603Z,46.80
2023-03-15T08:28:12.917Z,40.79
2023-03-15T08:31:18.967Z,42.91
2023-03-15T08:34:26.326Z,38.48
2023-03-15T08:37:32.159Z,41.89
2023-03-15T08:40:41.703Z,43.83
2023-03-15T08:43:47.711Z,41.59
2023-03-15T08:46:54.480Z,56.30
2023-03-15T08:50:00.482Z,105.58
2023-03-15T08:53:07.154Z,92.86
2023-03-15T08:56:16.397Z,80.40
2023-03-15T08:59:31.704Z,173.24
2023-03-15T09:02:40.280Z,96.06
2023-03-15T09:05:49.863Z,155.35
2023-03-15T09:08:56.753Z,107.98
2023-03-15T09:12:16.498Z,76.92
2023-03-15T09:15:22.743Z,101.63
2023-03-15T09:18:29.623Z,54.33
2023-03-15T09:21:35.779Z,38.83
2023-03-15T09:24:42.491Z,123.18
2023-03-15T09:27:52.938Z,76.70
2023-03-15T09:31:00.203Z,63.00
2023-03-15T09:34:06.897Z,46.59
2023-03-15T09:37:13.940Z,55.97
2023-03-15T09:40:27.647Z,50.11
2023-03-15T09:44:25.432Z,42.23
2023-03-15T09:47:49.909Z,47.20
2023-03-15T09:51:12.183Z,36.83
2023-03-15T09:54:24.096Z,52.26
2023-03-15T09:57:49.913Z,45.84
2023-03-15T10:01:07.595Z,40.81
2023-03-15T10:04:30.404Z,44.47
2023-03-15T10:07:36.327Z,56.03
2023-03-15T10:10:56.504Z,40.33
2023-03-15T10:14:25.609Z,79.97
2023-03-15T10:17:53.247Z,89.34
2023-03-15T10:21:14.110Z,41.45
2023-03-15T10:24:27.299Z,40.39
2023-03-15T10:27:44.553Z,44.44
2023-03-15T10:30:54.466Z,46.10
2023-03-15T10:34:09.827Z,45.63
2023-03-15T10:37:16.553Z,42.91
2023-03-15T10:40:45.369Z,62.77
2023-03-15T10:44:04.902Z,70.77
2023-03-15T10:47:23.713Z,79.79
2023-03-15T10:50:42.352Z,39.38
2023-03-15T10:53:58.759Z,41.82
2023-03-15T10:57:16.728Z,52.65
2023-03-15T11:00:32.617Z,64.03
2023-03-15T11:03:44.191Z,72.95
2023-03-15T11:07:03.828Z,55.62
2023-03-15T11:10:25.490Z,63.25
2023-03-15T11:13:34.140Z,47.81
2023-03-15T11:16:41.441Z,47.14
2023-03-15T11:19:59.883Z,46.47
2023-03-15T11:23:22.822Z,70.79
2023-03-15T11:26:33.012Z,51.19
2023-03-15T11:29:45.343Z,50.33
2023-03-15T11:32:51.355Z,51.10
2023-03-15T11:36:03.079Z,53.85
2023-03-15T11:39:18.698Z,153.02
2023-03-15T11:42:36.851Z,187.54
2023-03-15T11:45:54.214Z,44.30
2023-03-15T11:49:45.504Z,68.08
2023-03-15T11:52:54.016Z,146.84
2023-03-15T11:56:26.615Z,157.31
2023-03-15T11:59:36.891Z,67.85
2023-03-15T12:02:54.470Z,67.70
2023-03-15T12:06:34.297Z,72.26
2023-03-15T12:09:52.646Z,64.81
2023-03-15T12:13:20.018Z,67.27
2023-03-15T12:16:31.781Z,57.86
2023-03-15T12:19:40.560Z,48.85
2023-03-15T12:22:57.425Z,64.28
2023-03-15T12:26:26.922Z,53.02
2023-03-15T12:29:38.860Z,47.74
2023-03-15T12:32:55.140Z,85.11
2023-03-15T12:36:18.446Z,81.81
2023-03-15T12:39:43.072Z,87.37
2023-03-15T12:43:09.322Z,122.52
2023-03-15T12:47:04.624Z,67.52
2023-03-15T12:50:41.710Z,67.74
2023-03-15T12:53:57.174Z,72.80
2023-03-15T12:57:07.976Z,103.12
2023-03-15T13:00:23.990Z,55.68
2023-03-15T13:03:34.950Z,58.25
2023-03-15T13:07:07.697Z,82.74
2023-03-15T13:11:04.205Z,50.42
2023-03-15T13:14:35.914Z,80.90
2023-03-15T13:17:53.889Z,66.93
2023-03-15T13:21:21.356Z,72.70
2023-03-15T13:24:45.457Z,104.75
2023-03-15T13:28:01.954Z,110.84
2023-03-15T13:31:29.939Z,119.25
2023-03-15T13:34:38.435Z,92.89
2023-03-15T13:37:47.056Z,80.37
2023-03-15T13:40:54.102Z,61.16
2023-03-15T13:44:05.252Z,134.90
2023-03-15T13:47:23.610Z,112.32
2023-03-15T13:50:29.675Z,55.35
2023-03-15T13:53:49.788Z,48.75
2023-03-15T13:57:06.492Z,85.70
2023-03-15T14:00:19.460Z,92.04
2023-03-15T14:03:26.317Z,68.11
2023-03-15T14:06:33.713Z,76.07
2023-03-15T14:09:42.310Z,84.89
2023-03-15T14:12:50.008Z,49.84
2023-03-15T14:16:04.195Z,56.87
2023-03-15T14:19:22.187Z,65.22
2023-03-15T14:22:36.038Z,75.33
2023-03-15T14:25:46.778Z,105.52
2023-03-15T14:29:04.972Z,120.53
2023-03-15T14:32:27.921Z,107.43
2023-03-15T14:35:43.705Z,81.54
2023-03-15T14:38:56.460Z,71.83
2023-03-15T14:42:04.886Z,52.76
2023-03-15T14:45:13.502Z,66.26
2023-03-15T14:48:32.164Z,107.27
2023-03-15T14:51:46.416Z,78.23
2023-03-15T14:55:06.765Z,64.50
2023-03-15T14:58:20.237Z,54.38
2023-03-15T15:01:30.412Z,36.16
2023-03-15T15:04:39.799Z,54.42
2023-03-15T15:07:45.868Z,84.24
2023-03-15T15:10:58.920Z,73.62
2023-03-15T15:14:07.508Z,124.30
2023-03-15T15:17:14.304Z,136.15
2023-03-15T15:20:20.997Z,48.60
2023-03-15T15:23:32.258Z,55.76
2023-03-15T15:26:39.303Z,55.47
2023-03-15T15:29:49.343Z,39.66
2023-03-15T15:33:07.668Z,53.02
2023-03-15T15:36:24.405Z,97.72
2023-03-15T15:39:31.133Z,91.68
2023-03-15T15:42:37.820Z,95.50
2023-03-15T15:45:49.257Z,110.13
2023-03-15T15:48:56.304Z,89.09
2023-03-15T15:52:04.926Z,57.87
2023-03-15T15:55:15.738Z,53.22
2023-03-15T15:58:23.435Z,140.37
2023-03-15T16:01:33.398Z,92.60
2023-03-15T16:04:42.243Z,51.56
2023-03-15T16:07:49.837Z,145.93
2023-03-15T16:10:59.077Z,120.54
2023-03-15T16:14:06.302Z,64.36
2023-03-15T16:17:24.378Z,122.22
2023-03-15T16:20:31.386Z,83.14
2023-03-15T16:23:38.875Z,81.96
2023-03-15T16:26:52.580Z,150.78
2023-03-15T16:29:59.358Z,101.93
2023-03-15T16:33:19.110Z,69.71
2023-03-15T16:36:28.740Z,127.44
2023-03-15T16:39:41.123Z,105.40
2023-03-15T16:43:06.063Z,113.94
2023-03-15T16:46:26.957Z,111.01
2023-03-15T16:49:59.236Z,168.66
2023-03-15T16:53:27.003Z,80.25
2023-03-15T16:56:43.238Z,96.29
2023-03-15T16:59:49.171Z,182.11
2023-03-15T17:03:00.178Z,281.39
2023-03-15T17:06:09.745Z,187.31
2023-03-15T17:09:22.846Z,168.08
2023-03-15T17:12:37.232Z,148.96
2023-03-15T17:15:44.417Z,153.59
2023-03-15T17:18:56.003Z,180.49
2023-03-15T17:22:05.689Z,162.09
2023-03-15T17:25:18.603Z,162.03
2023-03-15T17:28:31.811Z,158.18
2023-03-15T17:31:40.324Z,153.95
2023-03-15T17:34:52.827Z,178.46
2023-03-15T17:38:08.783Z,153.10
2023-03-15T17:41:37.406Z,316.52
2023-03-15T17:44:43.514Z,192.44
2023-03-15T17:47:50.484Z,189.20
2023-03-15T17:50:59.369Z,210.39
2023-03-15T17:54:20.949Z,240.74
2023-03-15T17:57:27.342Z,203.96
2023-03-15T18:00:42.290Z,170.21
2023-03-15T18:03:49.532Z,185.51
2023-03-15T18:06:56.501Z,228.55
2023-03-15T18:10:05.207Z,262.34
2023-03-15T18:13:19.220Z,266.14
2023-03-15T18:16:25.774Z,267.26
2023-03-15T18:19:33.069Z,257.21
2023-03-15T18:22:42.431Z,230.74
2023-03-15T18:25:52.461Z,212.36
2023-03-15T18:28:58.680Z,215.03
2023-03-15T18:32:05.759Z,226.55
2023-03-15T18:35:26.405Z,240.09
2023-03-15T18:38:33.482Z,279.36
2023-03-15T18:41:42.270Z,273.09
2023-03-15T18:44:49.115Z,295.54
2023-03-15T18:47:55.555Z,330.80
2023-03-15T18:51:02.404Z,375.92
2023-03-15T18:54:08.794Z,530.24
2023-03-15T18:57:20.706Z,763.81
2023-03-15T19:00:36.343Z,1001.53
2023-03-15T19:03:44.170Z,1249.74
2023-03-15T19:06:51.759Z,1070.49
2023-03-15T19:09:59.545Z,895.05
2023-03-15T19:13:09.880Z,737.52
2023-03-15T19:16:17.841Z,723.29
2023-03-15T19:19:24.181Z,773.22
2023-03-15T19:22:32.047Z,712.71
2023-03-15T19:25:40.413Z,589.18
2023-03-15T19:28:50.715Z,515.63
2023-03-15T19:31:57.380Z,502.13
2023-03-15T19:35:06.025Z,504.19
2023-03-15T19:38:13.103Z,505.72
2023-03-15T19:41:20.195Z,506.34
2023-03-15T19:44:30.840Z,538.98
2023-03-15T19:47:38.363Z,479.43
2023-03-15T19:50:45.513Z,415.07
2023-03-15T19:53:56.775Z,358.81
2023-03-15T19:57:03.673Z,437.93
2023-03-15T20:00:16.992Z,712.05
2023-03-15T20:03:25.920Z,518.83
2023-03-15T20:06:33.147Z,389.95
2023-03-15T20:09:40.076Z,364.39
2023-03-15T20:12:47.663Z,355.98
2023-03-15T20:16:03.225Z,318.45
2023-03-15T20:19:11.048Z,324.97
2023-03-15T20:22:18.116Z,308.25
2023-03-15T20:25:26.266Z,321.52
2023-03-15T20:28:32.444Z,354.55
2023-03-15T20:31:48.556Z,405.79
2023-03-15T20:34:57.654Z,328.90
2023-03-15T20:38:06.978Z,258.04
2023-03-15T20:41:20.741Z,251.56
2023-03-15T20:44:38.074Z,286.10
2023-03-15T20:47:46.762Z,313.62
2023-03-15T20:50:54.213Z,340.20
2023-03-15T20:54:01.093Z,391.45
2023-03-15T20:57:08.435Z,400.20
2023-03-15T21:00:22.776Z,424.58
2023-03-15T21:03:44.713Z,362.30
2023-03-15T21:06:50.959Z,500.39
2023-03-15T21:09:57.729Z,419.03
2023-03-15T21:13:10.193Z,325.70
2023-03-15T21:16:18.507Z,266.76
2023-03-15T21:19:29.402Z,312.56
2023-03-15T21:22:37.483Z,349.32
2023-03-15T21:25:57.457Z,383.91
2023-03-15T21:29:04.224Z,466.43
2023-03-15T21:32:11.301Z,385.05
2023-03-15T21:35:28.716Z,425.07
2023-03-15T21:38:37.613Z,395.53
2023-03-15T21:41:46.254Z,366.66
2023-03-15T21:44:55.758Z,399.17
2023-03-15T21:48:04.660Z,470.67
2023-03-15T21:51:14.707Z,546.66
2023-03-15T21:54:22.215Z,479.33
2023-03-15T21:57:34.073Z,426.53
2023-03-15T22:00:41.121Z,384.28
2023-03-15T22:03:47.122Z,325.21
2023-03-15T22:06:57.819Z,388.84
2023-03-15T22:10:05.075Z,377.45
2023-03-15T22:13:11.725Z,349.90
2023-03-15T22:16:17.996Z,359.45
2023-03-15T22:19:24.726Z,309.58
2023-03-15T22:22:33.722Z,287.74
2023-03-15T22:25:45.174Z,289.32
2023-03-15T22:28:51.706Z,307.12
2023-03-15T22:31:58.374Z,332.20
2023-03-15T22:35:08.467Z,329.97
2023-03-15T22:38:17.822Z,327.81
2023-03-15T22:41:24.305Z,336.13
2023-03-15T22:44:31.066Z,297.14
2023-03-15T22:47:41.855Z,280.06
2023-03-15T22:50:48.533Z,283.19
2023-03-15T22:53:57.438Z,294.78
2023-03-15T22:57:17.693Z,321.82
2023-03-15T23:00:43.976Z,320.50
2023-03-15T23:03:51.300Z,331.58
2023-03-15T23:06:57.214Z,330.79
2023-03-15T23:10:09.086Z,322.30
2023-03-15T23:13:15.130Z,338.69
2023-03-15T23:16:23.672Z,372.50
2023-03-15T23:19:38.396Z,387.96
2023-03-15T23:22:46.389Z,338.84
2023-03-15T23:25:55.413Z,318.25
2023-03-15T23:29:01.993Z,338.23
2023-03-15T23:32:09.708Z,392.12
2023-03-15T23:35:16.381Z,354.35
2023-03-15T23:38:22.437Z,386.83
2023-03-15T23:41:31.714Z,369.34
2023-03-15T23:44:37.576Z,348.10
2023-03-15T23:47:46.086Z,369.33
2023-03-15T23:50:56.475Z,323.92
2023-03-15T23:54:04.298Z,349.07
2023-03-15T23:57:16.248Z,351.89
